createdAt,value
2023-05-10T00:01:12.295Z,99582.32
2023-05-10T00:03:39.192Z,99579.40
2023-05-10T00:06:06.285Z,99577.86
2023-05-10T00:08:33.017Z,99578.52
2023-05-10T00:10:59.759Z,99576.77
2023-05-10T00:13:26.713Z,99577.92
2023-05-10T00:15:54.173Z,99575.86
2023-05-10T00:18:20.898Z,99573.29
2023-05-10T00:20:47.950Z,99569.36
2023-05-10T00:23:14.697Z,99572.11
2023-05-10T00:25:41.517Z,99569.85
2023-05-10T00:28:08.386Z,99568.42
2023-05-10T00:30:35.108Z,99568.24
2023-05-10T00:33:02.518Z,99568.19
2023-05-10T00:35:29.502Z,99562.11
2023-05-10T00:37:56.456Z,99563.94
2023-05-10T00:40:23.703Z,99564.54
2023-05-10T00:42:53.876Z,99565.53
2023-05-10T00:45:21.607Z,99564.81
2023-05-10T00:47:48.502Z,99565.48
2023-05-10T00:50:16.290Z,99567.13
2023-05-10T00:52:43.466Z,99566.42
2023-05-10T00:55:11.147Z,99567.58
2023-05-10T00:57:38.081Z,99569.46
2023-05-10T01:00:06.050Z,99566.19
2023-05-10T01:02:35.015Z,99565.30
2023-05-10T01:05:03.138Z,99565.09
2023-05-10T01:07:30.392Z,99565.23
2023-05-10T01:09:57.838Z,99563.50
2023-05-10T01:12:24.645Z,99567.73
2023-05-10T01:14:51.530Z,99568.19
2023-05-10T01:17:18.474Z,99571.20
2023-05-10T01:19:45.442Z,99567.05
2023-05-10T01:22:22.749Z,99563.67
2023-05-10T01:25:05.938Z,99563.27
2023-05-10T01:27:35.657Z,99563.05
2023-05-10T01:30:22.294Z,99561.80
2023-05-10T01:33:25.732Z,99563.58
2023-05-10T01:36:00.340Z,99563.33
2023-05-10T01:38:43.014Z,99558.44
2023-05-10T01:41:16.047Z,99554.25
2023-05-10T01:44:06.932Z,99551.46
2023-05-10T01:46:40.616Z,99554.38
2023-05-10T01:49:10.640Z,99550.61
2023-05-10T01:51:42.250Z,99548.55
2023-05-10T01:54:09.009Z,99546.16
2023-05-10T01:56:36.422Z,99545.98
2023-05-10T01:59:06.833Z,99548.38
2023-05-10T02:01:33.854Z,99544.77
2023-05-10T02:04:00.654Z,99539.58
2023-05-10T02:06:27.595Z,99539.75
2023-05-10T02:08:54.416Z,99538.06
2023-05-10T02:11:21.962Z,99542.70
2023-05-10T02:13:50.207Z,99543.89
2023-05-10T02:16:17.466Z,99541.94
2023-05-10T02:18:44.404Z,99537.89
2023-05-10T02:21:11.400Z,99537.13
2023-05-10T02:23:39.235Z,99537.19
2023-05-10T02:26:06.823Z,99539.85
2023-05-10T02:28:33.702Z,99538.05
2023-05-10T02:31:00.756Z,99535.02
2023-05-10T02:33:27.967Z,99535.10
2023-05-10T02:35:54.678Z,99535.88
2023-05-10T02:38:22.427Z,99539.10
2023-05-10T02:40:49.237Z,99534.56
2023-05-10T02:43:15.988Z,99532.98
2023-05-10T02:45:42.824Z,99531.92
2023-05-10T02:48:09.953Z,99537.62
2023-05-10T02:50:36.752Z,99537.63
2023-05-10T02:53:12.634Z,99536.94
2023-05-10T02:55:41.383Z,99534.38
2023-05-10T02:58:08.288Z,99533.20
2023-05-10T03:00:35.216Z,99533.94
2023-05-10T03:03:02.511Z,99533.34
2023-05-10T03:05:29.809Z,99532.48
2023-05-10T03:07:56.985Z,99530.34
2023-05-10T03:10:28.165Z,99528.52
2023-05-10T03:13:18.831Z,99531.95
2023-05-10T03:15:56.495Z,99529.95
2023-05-10T03:18:24.694Z,99531.14
2023-05-10T03:20:56.656Z,99528.46
2023-05-10T03:23:46.714Z,99520.84
2023-05-10T03:26:21.577Z,99523.29
2023-05-10T03:28:49.358Z,99523.85
2023-05-10T03:31:16.496Z,99524.11
2023-05-10T03:33:50.167Z,99524.70
2023-05-10T03:36:19.105Z,99520.40
2023-05-10T03:38:46.269Z,99516.73
2023-05-10T03:41:13.637Z,99517.60
2023-05-10T03:43:40.759Z,99515.80
2023-05-10T03:46:07.527Z,99518.63
2023-05-10T03:48:34.740Z,99517.20
2023-05-10T03:51:01.541Z,99514.27
2023-05-10T03:53:28.575Z,99515.30
2023-05-10T03:55:55.598Z,99514.56
2023-05-10T03:58:22.912Z,99518.30
2023-05-10T04:00:49.780Z,99519.64
2023-05-10T04:03:16.859Z,99516.73
2023-05-10T04:05:44.068Z,99513.48
2023-05-10T04:08:10.890Z,99513.11
2023-05-10T04:10:37.720Z,99514.09
2023-05-10T04:13:04.502Z,99514.00
2023-05-10T04:15:31.379Z,99508.64
2023-05-10T04:17:58.350Z,99508.36
2023-05-10T04:20:25.533Z,99505.52
2023-05-10T04:22:52.304Z,99505.90
2023-05-10T04:25:19.336Z,99505.06
2023-05-10T04:27:46.157Z,99498.34
2023-05-10T04:30:13.292Z,99496.75
2023-05-10T04:32:40.574Z,99495.10
2023-05-10T04:35:08.097Z,99494.28
2023-05-10T04:37:34.831Z,99494.80
2023-05-10T04:40:01.823Z,99494.77
2023-05-10T04:42:28.703Z,99499.68
2023-05-10T04:44:55.726Z,99501.23
2023-05-10T04:47:22.563Z,99498.59
2023-05-10T04:49:49.401Z,99501.27
2023-05-10T04:52:18.411Z,99501.04
2023-05-10T04:54:45.241Z,99501.63
2023-05-10T04:57:12.027Z,99501.98
2023-05-10T04:59:38.884Z,99498.95
2023-05-10T05:02:06.134Z,99500.17
2023-05-10T05:04:33.154Z,99498.30
2023-05-10T05:07:00.131Z,99497.81
2023-05-10T05:09:26.999Z,99492.09
2023-05-10T05:11:53.843Z,99491.48
2023-05-10T05:14:21.971Z,99492.94
2023-05-10T05:16:48.863Z,99503.33
2023-05-10T05:19:16.485Z,99502.67
2023-05-10T05:21:43.266Z,99500.45
2023-05-10T05:24:11.238Z,99502.77
2023-05-10T05:26:38.260Z,99506.07
2023-05-10T05:29:16.039Z,99501.60
2023-05-10T05:31:46.444Z,99503.40
2023-05-10T05:34:13.408Z,99502.94
2023-05-10T05:36:40.240Z,99505.19
2023-05-10T05:39:07.027Z,99505.11
2023-05-10T05:41:33.862Z,99503.31
2023-05-10T05:44:00.711Z,99504.63
2023-05-10T05:46:27.850Z,99502.63
2023-05-10T05:48:55.090Z,99504.26
2023-05-10T05:51:21.812Z,99506.22
2023-05-10T05:53:48.638Z,99502.27
2023-05-10T05:56:16.389Z,99502.98
2023-05-10T05:58:43.664Z,99503.15
2023-05-10T06:01:10.566Z,99507.30
2023-05-10T06:03:37.576Z,99504.17
2023-05-10T06:06:04.955Z,99501.05
2023-05-10T06:08:31.861Z,99502.58
2023-05-10T06:10:58.652Z,99503.10
2023-05-10T06:13:25.651Z,99503.27
2023-05-10T06:15:52.724Z,99504.46
2023-05-10T06:20:14.392Z,99502.70
2023-05-10T06:22:41.332Z,99500.27
2023-05-10T06:25:08.944Z,99497.30
2023-05-10T06:27:35.882Z,99497.11
2023-05-10T06:30:12.454Z,99495.52
2023-05-10T06:32:40.111Z,99492.54
2023-05-10T06:35:07.853Z,99490.60
2023-05-10T06:37:35.601Z,99489.20
2023-05-10T06:40:03.411Z,99492.30
2023-05-10T06:42:30.235Z,99491.39
2023-05-10T06:44:56.938Z,99489.27
2023-05-10T06:47:23.674Z,99489.57
2023-05-10T06:49:50.475Z,99485.52
2023-05-10T06:52:17.194Z,99485.47
2023-05-10T06:54:44.013Z,99483.52
2023-05-10T06:57:23.481Z,99483.97
2023-05-10T06:59:58.108Z,99483.39
2023-05-10T07:02:24.957Z,99479.02
2023-05-10T07:04:53.066Z,99480.52
2023-05-10T07:07:20.021Z,99484.09
2023-05-10T07:09:46.934Z,99483.52
2023-05-10T07:12:15.361Z,99483.33
2023-05-10T07:14:44.602Z,99476.22
2023-05-10T07:17:11.486Z,99479.99
2023-05-10T07:19:38.317Z,99482.15
2023-05-10T07:22:05.162Z,99482.23
2023-05-10T07:24:33.088Z,99480.75
2023-05-10T07:26:59.827Z,99478.72
2023-05-10T07:29:26.683Z,99475.28
2023-05-10T07:31:55.367Z,99475.67
2023-05-10T07:34:23.909Z,99475.23
2023-05-10T07:36:50.669Z,99470.45
2023-05-10T07:39:26.702Z,99476.28
2023-05-10T07:41:55.677Z,99474.81
2023-05-10T07:44:22.593Z,99473.48
2023-05-10T07:46:49.638Z,99473.18
2023-05-10T07:49:16.647Z,99473.69
2023-05-10T07:51:43.669Z,99474.03
2023-05-10T07:54:10.531Z,99471.45
2023-05-10T07:56:37.562Z,99472.51
2023-05-10T07:59:05.291Z,99469.36
2023-05-10T08:01:33.445Z,99469.36
2023-05-10T08:04:01.049Z,99471.61
2023-05-10T08:06:29.151Z,99470.58
2023-05-10T08:08:56.487Z,99470.99
2023-05-10T08:11:23.356Z,99466.86
2023-05-10T08:13:50.808Z,99467.93
2023-05-10T08:16:18.010Z,99464.48
2023-05-10T08:18:46.433Z,99464.11
2023-05-10T08:21:13.795Z,99455.34
2023-05-10T08:23:40.600Z,99454.61
2023-05-10T08:26:07.428Z,99454.90
2023-05-10T08:28:34.460Z,99451.71
2023-05-10T08:31:01.515Z,99455.39
2023-05-10T08:33:28.275Z,99451.39
2023-05-10T08:35:55.389Z,99456.76
2023-05-10T08:38:22.096Z,99457.27
2023-05-10T08:40:48.820Z,99455.59
2023-05-10T08:43:16.433Z,99457.75
2023-05-10T08:45:44.430Z,99456.75
2023-05-10T08:48:11.479Z,99452.59
2023-05-10T08:50:40.394Z,99451.21
2023-05-10T08:53:10.501Z,99454.50
2023-05-10T08:58:53.672Z,99452.46
2023-05-10T09:01:20.655Z,99445.30
2023-05-10T09:03:48.460Z,99452.89
2023-05-10T09:06:16.510Z,99453.96
2023-05-10T09:08:43.832Z,99444.05
2023-05-10T09:11:10.750Z,99443.13
2023-05-10T09:13:37.706Z,99443.38
2023-05-10T09:16:17.510Z,99446.19
2023-05-10T09:18:47.977Z,99446.09
2023-05-10T09:21:14.786Z,99447.74
2023-05-10T09:23:48.635Z,99444.94
2023-05-10T09:26:15.766Z,99445.90
2023-05-10T09:28:53.548Z,99444.97
2023-05-10T09:31:21.117Z,99447.32
2023-05-10T09:33:49.253Z,99446.45
2023-05-10T09:36:16.490Z,99437.48
2023-05-10T09:38:47.520Z,99438.46
2023-05-10T09:41:24.154Z,99436.08
2023-05-10T09:43:51.229Z,99440.67
2023-05-10T09:46:18.002Z,99427.64
2023-05-10T09:48:46.452Z,99433.31
2023-05-10T09:51:23.433Z,99433.73
2023-05-10T09:54:03.388Z,99423.94
2023-05-10T09:56:36.996Z,99429.45
2023-05-10T09:59:04.233Z,99426.05
2023-05-10T10:01:31.607Z,99431.14
2023-05-10T10:03:59.400Z,99428.63
2023-05-10T10:06:30.188Z,99425.90
2023-05-10T10:08:57.292Z,99425.23
2023-05-10T10:11:24.666Z,99424.52
2023-05-10T10:13:51.473Z,99423.13
2023-05-10T10:16:18.234Z,99418.55
2023-05-10T10:18:45.139Z,99421.16
2023-05-10T10:21:11.988Z,99419.40
2023-05-10T10:23:38.742Z,99417.53
2023-05-10T10:26:05.599Z,99419.88
2023-05-10T10:28:36.661Z,99414.80
2023-05-10T10:31:18.743Z,99408.66
2023-05-10T10:34:02.026Z,99404.64
2023-05-10T10:36:37.479Z,99399.45
2023-05-10T10:39:09.314Z,99394.98
2023-05-10T10:41:41.238Z,99393.06
2023-05-10T10:44:24.381Z,99390.99
2023-05-10T10:47:12.362Z,99390.56
2023-05-10T10:49:39.845Z,99387.38
2023-05-10T10:52:22.108Z,99381.30
2023-05-10T10:54:53.387Z,99380.02
2023-05-10T10:57:20.936Z,99382.52
2023-05-10T10:59:47.786Z,99381.56
2023-05-10T11:02:38.693Z,99383.30
2023-05-10T11:05:33.814Z,99386.58
2023-05-10T11:08:01.249Z,99385.40
2023-05-10T11:10:28.226Z,99382.77
2023-05-10T11:13:01.935Z,99377.35
2023-05-10T11:15:32.669Z,99378.02
2023-05-10T11:17:59.625Z,99373.86
2023-05-10T11:20:34.386Z,99380.30
2023-05-10T11:23:12.937Z,99368.58
2023-05-10T11:25:45.123Z,99369.10
2023-05-10T11:28:32.353Z,99368.08
2023-05-10T11:30:59.392Z,99351.66
2023-05-10T11:33:26.198Z,99356.41
2023-05-10T11:35:56.658Z,99351.66
2023-05-10T11:38:31.528Z,99351.84
2023-05-10T11:41:01.816Z,99349.38
2023-05-10T11:43:31.897Z,99344.41
2023-05-10T11:46:01.321Z,99348.19
2023-05-10T11:48:34.848Z,99342.05
2023-05-10T11:51:09.080Z,99340.33
2023-05-10T11:53:41.949Z,99340.76
2023-05-10T11:59:27.533Z,99334.80
2023-05-10T12:01:54.791Z,99336.58
2023-05-10T12:04:21.672Z,99335.42
2023-05-10T12:06:48.575Z,99331.27
2023-05-10T12:09:15.771Z,99328.77
2023-05-10T12:11:44.578Z,99325.00
2023-05-10T12:14:11.972Z,99328.43
2023-05-10T12:16:38.786Z,99329.14
2023-05-10T12:19:06.564Z,99329.51
2023-05-10T12:21:33.626Z,99328.66
2023-05-10T12:24:03.362Z,99328.75
2023-05-10T12:26:30.238Z,99324.61
2023-05-10T12:29:12.828Z,99318.95
2023-05-10T12:31:56.603Z,99320.29
2023-05-10T12:34:37.173Z,99320.48
2023-05-10T12:37:04.196Z,99318.98
2023-05-10T12:39:44.370Z,99318.81
2023-05-10T12:42:11.239Z,99312.25
2023-05-10T12:44:37.985Z,99313.65
2023-05-10T12:47:04.940Z,99313.09
2023-05-10T12:49:31.990Z,99307.83
2023-05-10T12:51:58.871Z,99302.29
2023-05-10T12:54:25.907Z,99305.73
2023-05-10T12:56:53.201Z,99299.27
2023-05-10T12:59:19.907Z,99285.91
2023-05-10T13:01:46.791Z,99292.97
2023-05-10T13:04:13.774Z,99289.60
2023-05-10T13:06:40.767Z,99286.77
2023-05-10T13:09:08.057Z,99282.23
2023-05-10T13:11:35.032Z,99282.89
2023-05-10T13:14:01.949Z,99282.93
2023-05-10T13:16:28.885Z,99283.65
2023-05-10T13:18:55.960Z,99281.89
2023-05-10T13:21:25.210Z,99279.65
2023-05-10T13:23:52.201Z,99275.88
2023-05-10T13:26:19.028Z,99276.36
2023-05-10T13:28:47.086Z,99272.66
2023-05-10T13:31:13.969Z,99268.64
2023-05-10T13:33:40.929Z,99270.02
2023-05-10T13:36:07.843Z,99269.77
2023-05-10T13:38:34.768Z,99264.34
2023-05-10T13:41:01.616Z,99264.15
2023-05-10T13:43:28.859Z,99260.80
2023-05-10T13:45:55.797Z,99259.48
2023-05-10T13:48:22.901Z,99255.68
2023-05-10T13:50:49.803Z,99252.14
2023-05-10T13:53:16.820Z,99252.94
2023-05-10T13:55:44.109Z,99255.54
2023-05-10T13:58:13.912Z,99253.31
2023-05-10T14:00:40.678Z,99248.28
2023-05-10T14:03:10.362Z,99246.70
2023-05-10T14:05:37.500Z,99247.80
2023-05-10T14:08:05.265Z,99246.86
2023-05-10T14:10:32.309Z,99243.35
2023-05-10T14:12:59.291Z,99242.05
2023-05-10T14:15:26.210Z,99234.49
2023-05-10T14:17:53.070Z,99234.16
2023-05-10T14:20:19.994Z,99235.12
2023-05-10T14:22:46.880Z,99236.17
2023-05-10T14:25:13.736Z,99235.94
2023-05-10T14:27:40.541Z,99231.30
2023-05-10T14:30:08.071Z,99228.89
2023-05-10T14:32:34.997Z,99228.91
2023-05-10T14:35:01.802Z,99235.39
2023-05-10T14:37:28.616Z,99233.42
2023-05-10T14:39:55.457Z,99231.23
2023-05-10T14:42:22.401Z,99226.79
2023-05-10T14:44:49.283Z,99229.44
2023-05-10T14:47:16.097Z,99227.28
2023-05-10T14:49:45.703Z,99225.92
2023-05-10T14:52:13.444Z,99225.41
2023-05-10T14:54:41.507Z,99224.73
2023-05-10T14:57:08.312Z,99222.52
2023-05-10T14:59:35.194Z,99222.83
2023-05-10T15:02:02.623Z,99222.11
2023-05-10T15:04:29.869Z,99220.73
2023-05-10T15:07:00.389Z,99218.16
2023-05-10T15:09:28.670Z,99218.24
2023-05-10T15:11:56.204Z,99215.29
2023-05-10T15:14:23.746Z,99212.90
2023-05-10T15:16:50.933Z,99210.31
2023-05-10T15:19:17.701Z,99210.52
2023-05-10T15:21:45.679Z,99205.98
2023-05-10T15:24:12.585Z,99207.75
2023-05-10T15:26:39.343Z,99200.04
2023-05-10T15:29:06.335Z,99201.66
2023-05-10T15:31:36.073Z,99201.20
2023-05-10T15:34:03.066Z,99203.05
2023-05-10T15:36:29.824Z,99205.66
2023-05-10T15:38:56.913Z,99204.53
2023-05-10T15:41:24.575Z,99203.38
2023-05-10T15:43:51.476Z,99199.61
2023-05-10T15:46:21.073Z,99202.79
2023-05-10T15:48:48.009Z,99204.48
2023-05-10T15:51:15.534Z,99198.27
2023-05-10T15:53:56.449Z,99199.25
2023-05-10T15:56:27.487Z,99205.33
2023-05-10T15:58:55.137Z,99204.81
2023-05-10T16:01:22.240Z,99206.67
2023-05-10T16:03:49.167Z,99204.85
2023-05-10T16:06:15.981Z,99200.83
2023-05-10T16:08:42.909Z,99203.26
2023-05-10T16:11:09.655Z,99203.84
2023-05-10T16:13:36.490Z,99203.32
2023-05-10T16:16:03.282Z,99207.55
2023-05-10T16:18:30.271Z,99210.85
2023-05-10T16:20:59.250Z,99213.91
2023-05-10T16:23:25.962Z,99215.76
2023-05-10T16:25:52.826Z,99214.29
2023-05-10T16:28:21.361Z,99217.04
2023-05-10T16:30:48.769Z,99217.50
2023-05-10T16:33:15.631Z,99212.67
2023-05-10T16:35:42.435Z,99222.39
2023-05-10T16:38:09.176Z,99222.30
2023-05-10T16:40:36.013Z,99224.80
2023-05-10T16:43:02.841Z,99224.90
2023-05-10T16:45:32.123Z,99224.70
2023-05-10T16:47:58.973Z,99226.73
2023-05-10T16:50:25.998Z,99229.98
2023-05-10T16:52:52.711Z,99233.95
2023-05-10T16:55:19.701Z,99231.08
2023-05-10T16:57:46.545Z,99234.90
2023-05-10T17:00:14.185Z,99234.23
2023-05-10T17:02:41.818Z,99234.81
2023-05-10T17:05:09.232Z,99235.66
2023-05-10T17:07:37.747Z,99234.89
2023-05-10T17:10:05.218Z,99235.81
2023-05-10T17:12:33.225Z,99231.73
2023-05-10T17:15:00.404Z,99234.30
2023-05-10T17:17:27.293Z,99232.89
2023-05-10T17:19:54.130Z,99241.42
2023-05-10T17:22:21.025Z,99240.89
2023-05-10T17:24:47.918Z,99241.61
2023-05-10T17:27:15.058Z,99244.77
2023-05-10T17:29:42.230Z,99249.16
2023-05-10T17:32:11.949Z,99251.64
2023-05-10T17:34:38.853Z,99254.80
2023-05-10T17:37:05.951Z,99257.05
2023-05-10T17:39:32.661Z,99255.48
2023-05-10T17:41:59.577Z,99254.55
2023-05-10T17:44:35.270Z,99254.88
2023-05-10T17:47:11.242Z,99261.64
2023-05-10T17:49:38.055Z,99265.06
2023-05-10T17:52:04.946Z,99270.56
2023-05-10T17:54:32.274Z,99272.56
2023-05-10T17:57:01.354Z,99275.94
2023-05-10T17:59:28.462Z,99273.90
2023-05-10T18:02:00.990Z,99282.97
2023-05-10T18:04:43.632Z,99285.60
2023-05-10T18:07:17.046Z,99287.05
2023-05-10T18:09:43.809Z,99292.44
2023-05-10T18:12:10.922Z,99295.77
2023-05-10T18:14:41.062Z,99300.29
2023-05-10T18:17:09.470Z,99306.36
2023-05-10T18:19:36.415Z,99305.14
2023-05-10T18:22:03.623Z,99310.66
2023-05-10T18:24:38.869Z,99310.27
2023-05-10T18:27:10.248Z,99315.77
2023-05-10T18:29:37.458Z,99312.92
2023-05-10T18:32:04.577Z,99321.02
2023-05-10T18:34:31.385Z,99322.33
2023-05-10T18:37:56.603Z,99326.57
2023-05-10T18:40:23.744Z,99324.95
2023-05-10T18:42:50.673Z,99325.35
2023-05-10T18:45:17.812Z,99326.80
2023-05-10T18:47:45.294Z,99328.96
2023-05-10T18:50:13.502Z,99330.08
2023-05-10T18:52:40.288Z,99331.74
2023-05-10T18:55:08.456Z,99334.74
2023-05-10T18:57:41.569Z,99337.60
2023-05-10T19:00:10.466Z,99339.92
2023-05-10T19:02:40.247Z,99340.15
2023-05-10T19:05:07.967Z,99340.91
2023-05-10T19:07:35.187Z,99343.20
2023-05-10T19:10:02.280Z,99343.06
2023-05-10T19:12:29.078Z,99345.55
2023-05-10T19:14:55.907Z,99346.80
2023-05-10T19:17:22.956Z,99346.65
2023-05-10T19:19:49.801Z,99346.16
2023-05-10T19:22:28.263Z,99345.50
2023-05-10T19:25:04.346Z,99343.09
2023-05-10T19:27:32.389Z,99344.52
2023-05-10T19:29:59.426Z,99342.46
2023-05-10T19:32:26.483Z,99342.30
2023-05-10T19:34:53.283Z,99339.38
2023-05-10T19:37:20.123Z,99343.05
2023-05-10T19:39:47.623Z,99342.72
2023-05-10T19:42:14.538Z,99343.79
2023-05-10T19:44:41.351Z,99343.29
2023-05-10T19:47:09.631Z,99343.48
2023-05-10T19:49:36.685Z,99344.38
2023-05-10T19:52:04.972Z,99344.40
2023-05-10T19:54:31.866Z,99343.39
2023-05-10T19:56:59.935Z,99345.84
2023-05-10T19:59:26.770Z,99350.54
2023-05-10T20:01:53.524Z,99347.79
2023-05-10T20:04:21.810Z,99347.98
2023-05-10T20:06:48.592Z,99349.38
2023-05-10T20:09:15.740Z,99348.52
2023-05-10T20:11:42.668Z,99351.84
2023-05-10T20:14:09.442Z,99353.41
2023-05-10T20:16:36.301Z,99350.83
2023-05-10T20:19:03.274Z,99348.60
2023-05-10T20:21:30.150Z,99349.98
2023-05-10T20:23:56.900Z,99350.66
2023-05-10T20:26:23.893Z,99351.37
2023-05-10T20:28:51.289Z,99349.66
2023-05-10T20:31:18.062Z,99351.04
2023-05-10T20:33:44.987Z,99356.25
2023-05-10T20:36:12.171Z,99356.61
2023-05-10T20:38:39.459Z,99358.69
2023-05-10T20:41:06.276Z,99356.27
2023-05-10T20:43:33.209Z,99358.00
2023-05-10T20:46:05.299Z,99357.15
2023-05-10T20:48:35.394Z,99357.49
2023-05-10T20:51:02.714Z,99353.69
2023-05-10T20:53:29.665Z,99354.39
2023-05-10T20:55:56.614Z,99353.02
2023-05-10T20:58:23.798Z,99352.51
2023-05-10T21:00:50.662Z,99352.67
2023-05-10T21:03:17.782Z,99356.67
2023-05-10T21:05:44.540Z,99355.97
2023-05-10T21:08:11.283Z,99356.84
2023-05-10T21:10:38.306Z,99361.17
2023-05-10T21:13:05.317Z,99359.80
2023-05-10T21:15:32.731Z,99362.05
2023-05-10T21:18:00.113Z,99363.61
2023-05-10T21:20:26.891Z,99359.98
2023-05-10T21:22:53.686Z,99356.86
2023-05-10T21:25:21.606Z,99359.65
2023-05-10T21:27:48.608Z,99357.22
2023-05-10T21:30:15.481Z,99358.09
2023-05-10T21:32:42.717Z,99355.14
2023-05-10T21:35:10.057Z,99351.69
2023-05-10T21:37:36.900Z,99351.52
2023-05-10T21:40:04.881Z,99349.61
2023-05-10T21:42:32.069Z,99347.52
2023-05-10T21:44:58.981Z,99345.46
2023-05-10T21:47:25.805Z,99342.69
2023-05-10T21:49:52.660Z,99344.23
2023-05-10T21:52:19.534Z,99347.35
2023-05-10T21:54:46.328Z,99345.95
2023-05-10T21:57:13.120Z,99343.71
2023-05-10T21:59:40.017Z,99346.45
2023-05-10T22:02:07.554Z,99342.31
2023-05-10T22:04:34.862Z,99346.80
2023-05-10T22:07:01.832Z,99341.62
2023-05-10T22:09:28.835Z,99337.80
2023-05-10T22:11:55.649Z,99340.91
2023-05-10T22:14:23.066Z,99342.79
2023-05-10T22:16:50.075Z,99342.95
2023-05-10T22:19:17.006Z,99345.52
2023-05-10T22:21:44.110Z,99347.94
2023-05-10T22:24:10.908Z,99344.98
2023-05-10T22:26:37.693Z,99344.98
2023-05-10T22:29:04.486Z,99346.17
2023-05-10T22:31:31.574Z,99349.44
2023-05-10T22:33:58.733Z,99347.36
2023-05-10T22:36:25.583Z,99345.27
2023-05-10T22:38:52.373Z,99345.60
2023-05-10T22:41:19.372Z,99350.24
2023-05-10T22:43:46.144Z,99345.58
2023-05-10T22:46:13.461Z,99347.80
2023-05-10T22:48:40.356Z,99347.78
2023-05-10T22:51:07.183Z,99351.04
2023-05-10T22:53:34.042Z,99350.33
2023-05-10T22:56:01.236Z,99354.45
2023-05-10T22:58:28.024Z,99355.80
2023-05-10T23:00:55.449Z,99356.30
2023-05-10T23:03:22.454Z,99354.02
2023-05-10T23:05:49.330Z,99353.48
2023-05-10T23:08:16.553Z,99352.41
2023-05-10T23:10:43.384Z,99349.79
2023-05-10T23:13:10.162Z,99353.55
2023-05-10T23:15:37.225Z,99353.02
2023-05-10T23:18:06.033Z,99350.22
2023-05-10T23:20:33.477Z,99350.71
2023-05-10T23:23:00.586Z,99350.17
2023-05-10T23:25:27.742Z,99347.23
2023-05-10T23:27:54.891Z,99346.17
2023-05-10T23:30:21.760Z,99344.94
2023-05-10T23:32:48.479Z,99342.33
2023-05-10T23:35:15.575Z,99343.17
2023-05-10T23:37:43.084Z,99343.51
2023-05-10T23:40:10.288Z,99343.33
2023-05-10T23:42:37.203Z,99343.66
2023-05-10T23:45:04.679Z,99342.28
2023-05-10T23:47:31.575Z,99344.70
2023-05-10T23:49:58.567Z,99341.59
2023-05-10T23:52:25.789Z,99339.16
2023-05-10T23:54:53.190Z,99340.19
2023-05-10T23:57:20.258Z,99342.07
2023-05-10T23:59:46.980Z,99341.88
